Time;durP1;ratioP1;P1;durP2;ratioP2;P2;SDS_P1;SDS_P2;PMS_P1;PMS_P2;Temp;Humidity;BMP_temperature;BMP_pressure;BME280_temperature;BME280_humidity;BME280_pressure;Samples;Min_cycle;Max_cycle;Signal;HPM_P1;HPM_P2
2022/05/15 00:02:19;;;;;;;21.58;4.13;;;12.40;99.90;;;;;;4991534;28;20072;-84
2022/05/15 00:04:45;;;;;;;14.10;3.05;;;12.40;99.90;;;;;;4991735;28;20050;-85
2022/05/15 00:07:11;;;;;;;12.02;3.10;;;12.40;99.90;;;;;;4970792;28;20046;-85
2022/05/15 00:09:37;;;;;;;23.52;4.05;;;12.40;99.90;;;;;;4966973;28;20031;-84
2022/05/15 00:12:04;;;;;;;26.33;4.20;;;12.40;99.90;;;;;;4966073;28;20042;-85
2022/05/15 00:14:30;;;;;;;19.15;3.33;;;12.40;99.90;;;;;;4964989;28;20026;-84
2022/05/15 00:16:56;;;;;;;16.75;3.50;;;12.40;99.90;;;;;;4973265;28;20031;-85
2022/05/15 00:19:22;;;;;;;17.90;3.33;;;12.50;99.90;;;;;;4973903;28;20026;-85
2022/05/15 00:21:47;;;;;;;20.15;3.58;;;12.50;99.90;;;;;;4974095;28;20099;-85
2022/05/15 00:24:13;;;;;;;21.95;3.22;;;12.50;99.90;;;;;;4977723;28;20388;-85
2022/05/15 00:26:38;;;;;;;24.90;4.07;;;12.50;99.90;;;;;;4977271;28;20050;-85
2022/05/15 00:29:04;;;;;;;18.92;4.07;;;12.60;99.90;;;;;;4977731;28;20207;-84
2022/05/15 00:31:30;;;;;;;15.07;3.33;;;12.60;99.90;;;;;;4974516;28;20049;-85
2022/05/15 00:33:56;;;;;;;18.98;3.58;;;12.60;99.90;;;;;;4994725;28;20479;-85
2022/05/15 00:36:21;;;;;;;20.50;3.15;;;12.60;99.90;;;;;;4978185;28;20031;-85
2022/05/15 00:38:47;;;;;;;33.63;5.43;;;12.60;99.90;;;;;;4976645;28;20031;-85
2022/05/15 00:41:13;;;;;;;21.05;3.65;;;12.60;99.90;;;;;;4973655;28;20097;-85
2022/05/15 00:43:44;;;;;;;16.95;3.45;;;12.60;99.90;;;;;;4974311;28;20062;-85
2022/05/15 00:46:23;;;;;;;22.75;4.70;;;12.60;99.90;;;;;;4975241;28;20034;-85
2022/05/15 00:48:50;;;;;;;19.40;3.72;;;12.60;99.90;;;;;;4976565;28;20435;-85
2022/05/15 00:51:25;;;;;;;24.98;4.55;;;12.50;99.90;;;;;;4976449;28;20038;-85
2022/05/15 00:53:55;;;;;;;20.92;3.78;;;12.50;99.90;;;;;;4974316;28;20027;-85
2022/05/15 00:56:24;;;;;;;20.92;3.58;;;12.50;99.90;;;;;;4977382;28;20034;-85
2022/05/15 00:58:56;;;;;;;19.00;3.65;;;12.40;99.90;;;;;;4975757;28;20026;-85
2022/05/15 01:01:21;;;;;;;28.25;5.10;;;12.40;99.90;;;;;;4976886;28;20038;-85
2022/05/15 01:03:47;;;;;;;21.33;4.70;;;12.40;99.90;;;;;;4974454;28;20059;-84
2022/05/15 01:06:13;;;;;;;19.08;3.83;;;12.40;99.90;;;;;;4974402;28;20097;-84
2022/05/15 01:08:38;;;;;;;18.80;3.67;;;12.30;99.90;;;;;;4974234;28;20027;-84
2022/05/15 01:11:10;;;;;;;27.95;5.22;;;12.30;99.90;;;;;;4974718;28;20030;-85
2022/05/15 01:13:38;;;;;;;20.70;3.72;;;12.30;99.90;;;;;;4992524;28;20109;-84
2022/05/15 01:16:05;;;;;;;17.52;3.72;;;12.20;99.90;;;;;;4974076;28;20019;-84
2022/05/15 01:18:33;;;;;;;23.45;4.10;;;12.30;99.90;;;;;;4977384;28;20335;-84
2022/05/15 01:21:00;;;;;;;16.20;3.80;;;12.30;99.90;;;;;;4991658;28;20056;-85
2022/05/15 01:23:29;;;;;;;22.05;4.63;;;12.20;99.90;;;;;;4975897;28;20113;-84
2022/05/15 01:25:56;;;;;;;17.15;4.18;;;12.20;99.90;;;;;;4982380;28;20030;-84
2022/05/15 01:28:24;;;;;;;17.67;3.65;;;12.20;99.90;;;;;;4972385;28;20062;-85
2022/05/15 01:30:52;;;;;;;20.92;3.85;;;12.20;99.90;;;;;;4976591;28;20033;-84
2022/05/15 01:33:18;;;;;;;21.73;4.40;;;12.20;99.90;;;;;;4975696;28;20037;-84
2022/05/15 01:35:44;;;;;;;20.45;3.75;;;12.10;99.90;;;;;;4972928;28;20404;-84
2022/05/15 01:38:10;;;;;;;17.75;3.63;;;12.10;99.90;;;;;;4990744;28;20050;-85
2022/05/15 01:40:36;;;;;;;18.73;3.83;;;12.10;99.90;;;;;;4973139;28;20391;-84
2022/05/15 01:43:03;;;;;;;20.10;4.07;;;12.10;99.90;;;;;;4977258;28;20030;-84
2022/05/15 01:45:29;;;;;;;17.98;3.65;;;12.10;99.90;;;;;;4977679;28;20033;-84
2022/05/15 01:47:55;;;;;;;21.75;4.40;;;12.00;99.90;;;;;;4976565;28;20022;-84
2022/05/15 01:50:20;;;;;;;25.13;4.22;;;12.00;99.90;;;;;;4972187;28;20057;-84
2022/05/15 01:52:46;;;;;;;15.82;4.13;;;12.00;99.90;;;;;;4966290;28;20356;-84
2022/05/15 01:55:12;;;;;;;22.70;5.53;;;12.00;99.90;;;;;;4973383;28;20113;-84
2022/05/15 01:57:40;;;;;;;21.27;4.50;;;11.90;99.90;;;;;;4994631;28;20513;-84
2022/05/15 02:00:09;;;;;;;20.70;4.00;;;11.90;99.90;;;;;;4968430;28;20396;-84
2022/05/15 02:02:35;;;;;;;21.00;4.68;;;11.90;99.90;;;;;;4975147;28;20073;-84
2022/05/15 02:05:01;;;;;;;23.00;4.28;;;11.90;99.90;;;;;;4974573;28;20098;-84
2022/05/15 02:07:27;;;;;;;21.65;4.50;;;11.90;99.90;;;;;;4974349;28;20022;-84
2022/05/15 02:09:52;;;;;;;21.10;3.90;;;11.80;99.90;;;;;;4974387;28;20427;-84
2022/05/15 02:12:18;;;;;;;21.77;4.35;;;11.80;99.90;;;;;;4976984;28;20031;-84
2022/05/15 02:14:43;;;;;;;22.48;4.97;;;11.80;99.90;;;;;;4975869;28;20033;-84
2022/05/15 02:17:09;;;;;;;24.70;4.43;;;11.70;99.90;;;;;;4975448;28;20030;-84
2022/05/15 02:19:34;;;;;;;22.95;4.28;;;11.70;99.90;;;;;;4973119;28;20483;-84
2022/05/15 02:22:00;;;;;;;21.65;3.75;;;11.60;99.90;;;;;;4968530;28;20042;-84
2022/05/15 02:24:25;;;;;;;24.08;5.38;;;11.60;99.90;;;;;;4974638;28;20044;-84
2022/05/15 02:26:51;;;;;;;23.30;4.32;;;11.60;99.90;;;;;;4976671;28;20026;-84
2022/05/15 02:29:17;;;;;;;22.73;4.95;;;11.60;99.90;;;;;;4975033;28;20030;-84
2022/05/15 02:31:42;;;;;;;26.08;4.78;;;11.60;99.90;;;;;;4976464;28;20030;-84
2022/05/15 02:34:08;;;;;;;18.23;4.00;;;11.50;99.90;;;;;;4993648;28;20029;-84
2022/05/15 02:36:34;;;;;;;18.30;3.97;;;11.50;99.90;;;;;;4976281;28;20027;-84
2022/05/15 02:38:59;;;;;;;22.17;4.72;;;11.50;99.90;;;;;;4993341;28;20034;-84
2022/05/15 02:41:25;;;;;;;17.75;4.05;;;11.50;99.90;;;;;;4992445;28;20045;-84
2022/05/15 02:43:50;;;;;;;18.40;3.58;;;11.50;99.90;;;;;;4988156;28;20514;-84
2022/05/15 02:46:16;;;;;;;22.52;5.43;;;11.40;99.90;;;;;;4994384;28;20085;-84
2022/05/15 02:51:43;;;;;;;25.98;4.25;;;11.40;99.90;;;;;;4929315;29;20031;-84
2022/05/15 02:54:08;;;;;;;22.38;4.20;;;11.30;99.90;;;;;;4955120;28;20038;-84
2022/05/15 02:56:35;;;;;;;22.80;4.18;;;11.30;99.90;;;;;;4974946;28;20030;-85
2022/05/15 02:59:01;;;;;;;23.75;4.97;;;11.30;99.90;;;;;;4964430;28;20033;-85
2022/05/15 03:01:26;;;;;;;26.95;5.90;;;11.20;99.90;;;;;;4975808;28;20050;-85
2022/05/15 03:03:52;;;;;;;26.08;4.90;;;11.20;99.90;;;;;;4967041;28;20049;-84
2022/05/15 03:06:18;;;;;;;30.45;4.82;;;11.10;99.90;;;;;;4972436;28;20026;-84
2022/05/15 03:08:47;;;;;;;24.92;4.88;;;11.10;99.90;;;;;;4976492;28;20566;-84
2022/05/15 03:11:13;;;;;;;18.73;4.63;;;11.10;99.90;;;;;;4968425;28;20089;-84
2022/05/15 03:13:38;;;;;;;26.13;3.97;;;11.10;99.90;;;;;;4973217;28;20022;-84
2022/05/15 03:16:05;;;;;;;22.35;4.70;;;11.00;99.90;;;;;;4993321;28;20065;-84
2022/05/15 03:18:31;;;;;;;22.08;4.35;;;11.00;99.90;;;;;;4972914;28;20502;-86
2022/05/15 03:20:57;;;;;;;31.45;4.93;;;10.90;99.90;;;;;;4985450;28;20035;-84
2022/05/15 03:23:23;;;;;;;22.95;5.68;;;10.90;99.90;;;;;;4970506;28;20050;-86
2022/05/15 03:25:48;;;;;;;21.90;5.55;;;10.90;99.90;;;;;;4972558;28;20069;-86
2022/05/15 03:28:14;;;;;;;19.65;3.85;;;10.90;99.90;;;;;;4967034;28;20475;-86
2022/05/15 03:30:43;;;;;;;28.27;5.10;;;10.80;99.90;;;;;;4972185;28;20027;-86
2022/05/15 03:33:09;;;;;;;20.77;4.65;;;10.80;99.90;;;;;;4972139;28;20034;-85
2022/05/15 03:35:36;;;;;;;19.20;4.03;;;10.80;99.90;;;;;;4971355;28;20023;-86
2022/05/15 03:38:02;;;;;;;25.75;4.50;;;10.70;99.90;;;;;;4967566;28;20026;-86
2022/05/15 03:40:29;;;;;;;25.92;5.25;;;10.70;99.90;;;;;;4967367;28;20038;-85
2022/05/15 03:42:55;;;;;;;20.88;3.70;;;10.70;99.90;;;;;;4967944;28;20404;-85
2022/05/15 03:45:21;;;;;;;22.42;4.07;;;10.70;99.90;;;;;;4972528;28;20117;-85
2022/05/15 03:47:52;;;;;;;24.98;4.72;;;10.70;99.90;;;;;;4972471;28;20046;-84
2022/05/15 03:50:20;;;;;;;27.67;4.70;;;10.60;99.90;;;;;;4963218;28;20026;-84
2022/05/15 03:52:46;;;;;;;26.75;4.78;;;10.60;99.90;;;;;;4972176;28;20130;-85
2022/05/15 03:55:12;;;;;;;20.45;5.10;;;10.60;99.90;;;;;;4967609;28;20114;-84
2022/05/15 03:57:39;;;;;;;26.77;6.32;;;10.50;99.90;;;;;;4959767;28;20587;-85
2022/05/15 04:00:10;;;;;;;22.63;5.15;;;10.50;99.90;;;;;;4971923;28;20404;-85
2022/05/15 04:02:38;;;;;;;25.13;4.72;;;10.50;99.90;;;;;;4972722;28;20089;-84
2022/05/15 04:05:04;;;;;;;26.67;5.18;;;10.50;99.90;;;;;;4971885;28;20066;-84
2022/05/15 04:07:30;;;;;;;21.33;4.10;;;10.40;99.90;;;;;;4971513;28;20033;-84
2022/05/15 04:09:55;;;;;;;20.02;4.95;;;10.50;99.90;;;;;;4972632;28;20031;-85
2022/05/15 04:12:21;;;;;;;21.20;5.03;;;10.40;99.90;;;;;;4969282;28;20046;-84
2022/05/15 04:14:46;;;;;;;23.98;5.32;;;10.40;99.90;;;;;;4972819;28;20069;-84
2022/05/15 04:17:12;;;;;;;27.55;5.15;;;10.40;99.90;;;;;;4971818;28;20037;-84
2022/05/15 04:19:38;;;;;;;23.25;5.32;;;10.50;99.90;;;;;;4972218;28;20026;-84
2022/05/15 04:22:05;;;;;;;26.70;5.43;;;10.50;99.90;;;;;;4970142;28;20055;-84
2022/05/15 04:24:32;;;;;;;24.67;6.00;;;10.50;99.90;;;;;;4971631;28;20047;-84
2022/05/15 04:26:58;;;;;;;19.90;5.13;;;10.50;99.90;;;;;;4961772;28;20038;-84
2022/05/15 04:29:24;;;;;;;24.45;4.45;;;10.50;99.90;;;;;;4964387;28;20024;-84
2022/05/15 04:31:55;;;;;;;24.02;5.40;;;10.50;99.90;;;;;;4971001;28;20042;-84
2022/05/15 04:34:25;;;;;;;29.33;4.88;;;10.50;99.90;;;;;;4959733;28;20027;-84
2022/05/15 04:36:51;;;;;;;23.05;5.22;;;10.60;99.90;;;;;;4956228;28;20038;-84
2022/05/15 04:39:17;;;;;;;28.95;5.85;;;10.60;99.90;;;;;;4968947;28;20034;-85
2022/05/15 04:41:43;;;;;;;21.50;5.88;;;10.70;99.90;;;;;;4964256;28;20038;-84
2022/05/15 04:44:09;;;;;;;21.95;5.35;;;10.70;99.90;;;;;;4966741;28;20041;-85
2022/05/15 04:46:34;;;;;;;23.35;5.30;;;10.80;99.90;;;;;;4965923;28;20134;-84
2022/05/15 04:49:00;;;;;;;23.35;5.65;;;10.80;99.90;;;;;;4962087;28;20054;-85
2022/05/15 04:51:26;;;;;;;26.90;5.43;;;10.90;99.90;;;;;;4971467;28;20495;-85
2022/05/15 04:53:52;;;;;;;30.52;5.10;;;11.00;99.90;;;;;;4970681;28;20023;-85
2022/05/15 04:56:18;;;;;;;24.77;5.28;;;11.00;99.90;;;;;;4970502;28;20031;-85
2022/05/15 04:58:44;;;;;;;24.30;5.43;;;11.10;99.90;;;;;;4971887;28;20082;-84
2022/05/15 05:01:09;;;;;;;26.00;6.55;;;11.20;99.90;;;;;;4972234;28;20086;-84
2022/05/15 05:03:35;;;;;;;19.27;5.35;;;11.20;99.90;;;;;;4964901;28;20027;-84
2022/05/15 05:06:01;;;;;;;20.75;5.82;;;11.30;99.90;;;;;;4970527;28;20090;-84
2022/05/15 05:08:26;;;;;;;28.23;7.40;;;11.30;99.90;;;;;;4975394;28;20471;-84
2022/05/15 05:10:52;;;;;;;27.10;6.88;;;11.40;99.90;;;;;;4971019;28;20488;-84
2022/05/15 05:13:18;;;;;;;28.20;5.43;;;11.50;99.90;;;;;;4972951;28;20093;-85
2022/05/15 05:15:43;;;;;;;30.67;6.40;;;11.60;99.90;;;;;;4973895;28;20027;-85
2022/05/15 05:18:08;;;;;;;25.50;5.28;;;11.70;99.90;;;;;;4975169;28;20022;-84
2022/05/15 05:20:34;;;;;;;24.35;5.53;;;11.90;99.90;;;;;;4975355;28;20027;-85
2022/05/15 05:23:00;;;;;;;18.45;5.35;;;12.30;99.90;;;;;;4974941;28;20499;-85
2022/05/15 05:25:25;;;;;;;24.08;5.03;;;12.60;99.90;;;;;;4975245;28;20108;-85
2022/05/15 05:27:51;;;;;;;21.90;4.85;;;13.00;99.90;;;;;;4964271;28;20030;-85
2022/05/15 05:30:21;;;;;;;22.55;4.97;;;13.30;99.90;;;;;;4974301;28;20090;-85
2022/05/15 05:32:47;;;;;;;17.65;4.65;;;13.60;99.90;;;;;;4968593;28;20045;-85
2022/05/15 05:35:15;;;;;;;19.77;5.28;;;14.00;99.90;;;;;;4969269;28;20050;-85
2022/05/15 05:37:41;;;;;;;21.70;5.20;;;14.10;99.90;;;;;;4965161;28;20506;-85
2022/05/15 05:40:07;;;;;;;24.20;5.47;;;14.20;99.90;;;;;;4975081;28;20033;-85
2022/05/15 05:42:33;;;;;;;21.48;4.82;;;14.30;99.90;;;;;;4971425;28;20086;-85
2022/05/15 05:44:58;;;;;;;15.32;5.05;;;14.30;99.90;;;;;;4973865;28;20026;-86
2022/05/15 05:47:25;;;;;;;21.08;4.75;;;14.40;99.90;;;;;;4973671;28;20023;-85
2022/05/15 05:49:51;;;;;;;23.00;6.13;;;14.30;99.90;;;;;;4973069;28;20038;-84
2022/05/15 05:52:17;;;;;;;26.40;5.70;;;14.40;99.90;;;;;;4975155;28;20023;-85
2022/05/15 05:54:42;;;;;;;21.50;6.45;;;14.50;99.90;;;;;;4975219;28;20051;-85
2022/05/15 05:57:08;;;;;;;22.58;5.50;;;14.70;99.90;;;;;;4974382;28;20054;-85
2022/05/15 05:59:33;;;;;;;26.30;6.07;;;14.80;99.90;;;;;;4962726;28;20495;-85
2022/05/15 06:01:59;;;;;;;29.42;5.75;;;14.90;99.90;;;;;;4971567;28;20043;-86
2022/05/15 06:04:40;;;;;;;23.70;5.32;;;14.90;99.90;;;;;;4967976;28;20019;-83
2022/05/15 06:07:08;;;;;;;25.05;5.30;;;14.90;99.90;;;;;;4965867;28;20035;-84
2022/05/15 06:09:36;;;;;;;21.55;5.18;;;14.90;99.90;;;;;;4974948;28;20025;-84
2022/05/15 06:12:02;;;;;;;18.55;4.85;;;15.00;99.90;;;;;;4971708;28;20027;-86
2022/05/15 06:14:28;;;;;;;31.38;5.32;;;15.10;99.90;;;;;;4970376;28;20038;-86
2022/05/15 06:16:54;;;;;;;17.60;4.38;;;15.20;99.90;;;;;;4969114;28;20034;-86
2022/05/15 06:19:19;;;;;;;20.70;5.10;;;15.20;99.90;;;;;;4971818;28;20058;-86
2022/05/15 06:21:45;;;;;;;18.98;4.63;;;15.20;99.90;;;;;;4974492;28;20092;-86
2022/05/15 06:24:10;;;;;;;22.17;5.32;;;15.30;99.90;;;;;;4970633;28;20999;-86
2022/05/15 06:26:36;;;;;;;21.23;4.53;;;15.40;99.90;;;;;;4973698;28;20027;-86
2022/05/15 06:29:01;;;;;;;19.17;5.20;;;15.50;99.90;;;;;;4975217;28;20491;-86
2022/05/15 06:31:27;;;;;;;16.35;4.65;;;15.60;99.90;;;;;;4972765;28;20038;-85
2022/05/15 06:33:52;;;;;;;23.80;4.70;;;15.60;99.90;;;;;;4972561;28;20057;-86
2022/05/15 06:36:18;;;;;;;22.25;6.00;;;15.70;99.90;;;;;;4966793;28;20031;-85
2022/05/15 06:38:43;;;;;;;20.85;5.25;;;15.80;99.90;;;;;;4970896;28;20550;-85
2022/05/15 06:41:10;;;;;;;22.88;5.35;;;16.00;99.90;;;;;;4972548;28;20042;-86
2022/05/15 06:43:36;;;;;;;20.67;4.45;;;16.00;99.90;;;;;;4974702;28;20037;-85
2022/05/15 06:46:02;;;;;;;24.52;6.55;;;16.10;99.90;;;;;;4970984;28;20054;-86
2022/05/15 06:48:27;;;;;;;16.15;4.82;;;16.20;99.90;;;;;;4968758;28;20030;-86
2022/05/15 06:50:53;;;;;;;15.35;4.13;;;16.30;99.90;;;;;;4967594;28;20037;-85
2022/05/15 06:53:18;;;;;;;19.40;5.47;;;16.30;99.90;;;;;;4972143;28;20034;-86
2022/05/15 06:58:29;;;;;;;15.63;5.13;;;16.40;99.90;;;;;;4971557;28;20098;-86
2022/05/15 07:00:55;;;;;;;17.52;5.57;;;16.50;99.90;;;;;;4972027;28;20491;-85
2022/05/15 07:03:21;;;;;;;18.13;5.50;;;16.60;99.90;;;;;;4971836;28;20513;-85
2022/05/15 07:05:47;;;;;;;27.90;6.25;;;16.70;99.90;;;;;;4975990;28;20022;-86
2022/05/15 07:08:15;;;;;;;23.08;5.68;;;16.80;99.90;;;;;;4974803;28;20498;-86
2022/05/15 07:10:40;;;;;;;17.42;5.10;;;16.90;99.90;;;;;;4954951;28;20436;-85
2022/05/15 07:13:06;;;;;;;20.40;6.03;;;17.00;99.90;;;;;;4973763;28;20034;-86
2022/05/15 07:15:32;;;;;;;20.42;5.00;;;17.10;99.90;;;;;;4970141;28;20113;-86
2022/05/15 07:17:58;;;;;;;17.45;4.72;;;17.20;99.90;;;;;;4972805;28;20499;-86
2022/05/15 07:20:23;;;;;;;13.75;4.57;;;17.30;99.90;;;;;;4973271;28;20023;-86
2022/05/15 07:22:49;;;;;;;19.02;5.28;;;17.40;99.90;;;;;;4975614;28;20035;-85
2022/05/15 07:25:15;;;;;;;13.45;4.32;;;17.50;99.90;;;;;;4973474;28;20030;-86
2022/05/15 07:27:40;;;;;;;14.07;4.82;;;17.60;99.90;;;;;;4974776;28;20379;-86
2022/05/15 07:30:07;;;;;;;25.95;6.40;;;17.70;99.90;;;;;;4974911;28;20598;-85
2022/05/15 07:32:33;;;;;;;18.60;6.05;;;17.80;99.90;;;;;;4976193;28;20514;-86
2022/05/15 07:34:58;;;;;;;14.65;5.80;;;17.80;99.90;;;;;;4975891;28;20037;-86
2022/05/15 07:37:24;;;;;;;15.55;5.50;;;17.90;99.90;;;;;;4975498;28;20582;-86
2022/05/15 07:39:49;;;;;;;22.67;6.43;;;17.90;99.90;;;;;;4975065;28;20061;-85
2022/05/15 07:42:15;;;;;;;24.90;6.53;;;18.00;99.90;;;;;;4975124;28;20041;-86
2022/05/15 07:44:41;;;;;;;22.30;6.65;;;18.00;99.90;;;;;;4976154;28;20057;-86
2022/05/15 07:47:08;;;;;;;17.15;5.82;;;18.00;99.90;;;;;;4972059;28;20069;-86
2022/05/15 07:49:34;;;;;;;25.55;7.20;;;18.10;99.90;;;;;;4963847;28;20031;-85
2022/05/15 07:52:00;;;;;;;20.08;6.03;;;18.10;99.90;;;;;;4975094;28;20030;-86
2022/05/15 07:54:26;;;;;;;15.05;5.60;;;18.20;99.70;;;;;;4973460;28;20027;-85
2022/05/15 07:56:52;;;;;;;22.83;6.88;;;18.30;99.60;;;;;;4971314;28;20023;-87
2022/05/15 07:59:18;;;;;;;19.70;6.03;;;18.50;99.50;;;;;;4974956;28;20510;-85
2022/05/15 08:01:43;;;;;;;17.67;5.32;;;18.70;99.40;;;;;;4976004;28;20045;-86
2022/05/15 08:04:10;;;;;;;16.50;5.00;;;18.90;99.00;;;;;;4974505;28;20026;-85
2022/05/15 08:09:20;;;;;;;15.43;4.75;;;19.10;98.00;;;;;;4989761;28;20041;-86
2022/05/15 08:11:45;;;;;;;12.70;4.00;;;19.30;97.70;;;;;;4992092;28;20034;-86
2022/05/15 08:14:12;;;;;;;14.68;4.88;;;19.40;97.10;;;;;;4974590;28;20398;-85
2022/05/15 08:16:38;;;;;;;20.65;4.90;;;19.50;96.60;;;;;;4975529;28;20514;-85
2022/05/15 08:24:36;;;;;;;10.40;3.58;;;20.00;96.00;;;;;;4985869;28;20049;-86
2022/05/15 08:27:02;;;;;;;10.65;3.58;;;20.20;95.70;;;;;;4975108;28;20022;-85
2022/05/15 08:29:27;;;;;;;13.68;3.88;;;20.40;94.70;;;;;;4974476;28;20035;-86
2022/05/15 08:31:53;;;;;;;15.18;4.43;;;20.50;94.30;;;;;;4972873;28;20030;-86
2022/05/15 08:34:18;;;;;;;17.98;5.05;;;20.70;93.80;;;;;;4976489;28;20022;-86
2022/05/15 08:36:45;;;;;;;16.33;3.90;;;20.70;93.70;;;;;;4975161;28;20037;-85
2022/05/15 08:39:11;;;;;;;11.23;3.22;;;20.90;93.20;;;;;;4974235;28;20102;-86
2022/05/15 08:41:49;;;;;;;13.07;3.50;;;21.00;92.60;;;;;;4977419;28;20111;-86
2022/05/15 08:44:19;;;;;;;14.23;3.78;;;21.20;92.30;;;;;;4978815;28;20109;-85
2022/05/15 08:47:17;;;;;;;12.60;3.47;;;21.30;91.80;;;;;;4978682;28;20031;-87
2022/05/15 08:50:06;;;;;;;14.77;4.00;;;21.40;91.00;;;;;;4972631;28;20050;-87
2022/05/15 08:52:45;;;;;;;10.63;3.10;;;21.40;91.20;;;;;;4968795;28;20046;-86
2022/05/15 08:55:33;;;;;;;13.65;4.82;;;21.50;91.30;;;;;;4969394;28;20042;-86
2022/05/15 08:58:26;;;;;;;14.93;3.60;;;21.60;90.40;;;;;;4976773;28;20112;-87
2022/05/15 09:00:53;;;;;;;12.35;3.15;;;21.60;90.20;;;;;;4977972;28;20058;-85
2022/05/15 09:03:27;;;;;;;10.68;3.45;;;21.60;89.20;;;;;;4976765;28;20061;-86
2022/05/15 09:06:04;;;;;;;14.93;3.58;;;21.70;87.90;;;;;;4965538;28;20033;-87
2022/05/15 09:08:52;;;;;;;11.52;3.08;;;21.90;88.10;;;;;;4971792;28;20031;-86
2022/05/15 09:11:44;;;;;;;11.93;3.78;;;22.00;87.50;;;;;;4975098;28;20397;-89
2022/05/15 09:14:15;;;;;;;14.02;4.05;;;22.10;84.30;;;;;;4976818;28;20093;-89
2022/05/15 09:16:54;;;;;;;13.25;3.63;;;22.20;84.00;;;;;;4977818;28;20070;-89
2022/05/15 09:19:20;;;;;;;14.43;3.78;;;22.20;83.60;;;;;;4976433;28;20019;-89
2022/05/15 09:21:46;;;;;;;11.27;3.58;;;22.30;83.20;;;;;;4978771;28;20108;-89
2022/05/15 09:24:36;;;;;;;16.25;3.55;;;22.40;82.60;;;;;;4973969;28;20043;-89
2022/05/15 09:27:18;;;;;;;16.30;3.67;;;22.40;81.50;;;;;;4977409;28;20026;-88
2022/05/15 09:29:52;;;;;;;13.43;3.10;;;22.40;78.80;;;;;;4967528;28;20034;-89
2022/05/15 09:32:30;;;;;;;12.25;3.63;;;22.40;78.80;;;;;;4977914;28;20023;-86
2022/05/15 09:34:59;;;;;;;17.65;3.95;;;22.40;79.30;;;;;;4970933;28;20058;-89
2022/05/15 09:40:19;;;;;;;11.65;2.67;;;22.40;77.00;;;;;;4991964;28;20029;-89
2022/05/15 09:43:33;;;;;;;11.98;2.40;;;22.50;75.20;;;;;;4978464;28;20042;-89
2022/05/15 09:46:06;;;;;;;8.80;2.13;;;22.50;74.60;;;;;;4977851;28;20092;-88
2022/05/15 09:48:54;;;;;;;8.93;2.50;;;22.60;73.50;;;;;;4977962;28;20049;-89
2022/05/15 09:51:45;;;;;;;10.32;2.10;;;22.70;71.10;;;;;;4977283;28;20034;-89
2022/05/15 09:54:33;;;;;;;11.52;2.63;;;22.70;69.50;;;;;;4972921;28;20074;-88
2022/05/15 09:57:24;;;;;;;12.57;2.22;;;22.70;69.20;;;;;;4979526;28;20085;-88
2022/05/15 10:00:05;;;;;;;10.57;1.70;;;22.80;68.40;;;;;;4969269;28;20093;-90
2022/05/15 10:02:44;;;;;;;12.68;1.50;;;22.90;67.80;;;;;;4972559;28;20047;-89
2022/05/15 10:05:22;;;;;;;8.68;1.13;;;23.10;67.10;;;;;;4974624;28;20232;-88
2022/05/15 10:07:56;;;;;;;7.75;1.15;;;23.20;65.60;;;;;;4973854;28;20038;-88
2022/05/15 10:10:35;;;;;;;9.07;2.13;;;23.30;64.60;;;;;;4973493;28;20026;-89
2022/05/15 10:13:05;;;;;;;9.45;1.17;;;23.30;62.70;;;;;;4977527;28;20218;-88
2022/05/15 10:15:38;;;;;;;7.75;1.85;;;23.40;61.80;;;;;;4974876;28;20022;-88
2022/05/15 10:18:04;;;;;;;8.05;1.85;;;23.50;61.90;;;;;;4976902;28;20030;-89
2022/05/15 10:20:35;;;;;;;12.00;2.20;;;23.60;61.50;;;;;;4974653;28;20482;-88
2022/05/15 10:23:19;;;;;;;8.95;1.65;;;23.50;60.30;;;;;;4972356;28;20109;-88
2022/05/15 10:25:56;;;;;;;10.18;2.30;;;23.50;60.80;;;;;;4974348;28;20030;-89
2022/05/15 10:28:47;;;;;;;10.48;2.70;;;23.50;61.10;;;;;;4976275;28;20441;-88
2022/05/15 10:31:30;;;;;;;10.10;2.33;;;23.50;62.30;;;;;;4975399;28;20085;-89
2022/05/15 10:33:58;;;;;;;7.88;1.02;;;23.70;63.00;;;;;;4957999;28;20066;-88
2022/05/15 10:36:48;;;;;;;9.40;1.13;;;23.80;60.30;;;;;;4975427;28;20489;-88
2022/05/15 10:39:51;;;;;;;7.20;1.20;;;23.90;59.50;;;;;;4962726;28;20031;-87
2022/05/15 10:42:32;;;;;;;7.15;1.15;;;23.90;59.00;;;;;;4975628;28;20123;-87
2022/05/15 10:45:21;;;;;;;8.77;1.58;;;23.90;59.10;;;;;;4976251;28;20502;-87
2022/05/15 10:48:24;;;;;;;7.55;1.00;;;23.90;58.30;;;;;;4970790;28;20035;-88
2022/05/15 10:51:22;;;;;;;7.05;0.77;;;24.00;59.00;;;;;;4965139;28;20399;-88
2022/05/15 10:57:22;;;;;;;10.23;1.02;;;24.30;57.30;;;;;;4975135;28;20089;-88
2022/05/15 11:00:00;;;;;;;8.23;1.00;;;24.30;57.00;;;;;;4973643;28;20034;-89
2022/05/15 11:03:03;;;;;;;7.07;1.42;;;24.40;56.90;;;;;;4971127;28;20039;-89
2022/05/15 11:05:31;;;;;;;9.10;0.95;;;24.50;55.80;;;;;;4986142;28;20027;-90
2022/05/15 11:08:15;;;;;;;14.52;1.95;;;24.50;56.30;;;;;;4973264;28;20022;-90
2022/05/15 11:11:25;;;;;;;5.63;1.10;;;24.50;55.00;;;;;;4973587;28;20026;-88
2022/05/15 11:14:01;;;;;;;8.38;1.17;;;24.60;55.70;;;;;;4959507;28;20027;-88
2022/05/15 11:16:55;;;;;;;6.97;1.23;;;24.60;53.70;;;;;;4976032;28;20053;-88
2022/05/15 11:19:39;;;;;;;5.82;0.68;;;24.60;55.20;;;;;;4974575;28;20137;-89
2022/05/15 11:22:23;;;;;;;5.78;0.77;;;24.80;54.90;;;;;;4971737;28;20039;-89
2022/05/15 11:24:57;;;;;;;8.57;1.00;;;24.90;52.50;;;;;;4972890;28;20050;-89
2022/05/15 11:27:38;;;;;;;8.98;1.23;;;24.80;52.50;;;;;;4970095;28;20073;-89
2022/05/15 11:30:17;;;;;;;7.10;1.20;;;24.80;52.20;;;;;;4976762;28;20093;-89
2022/05/15 11:32:45;;;;;;;4.25;0.65;;;24.80;52.90;;;;;;4975449;28;20073;-89
2022/05/15 11:35:21;;;;;;;9.93;1.65;;;25.00;52.70;;;;;;4974745;28;20034;-89
2022/05/15 11:38:04;;;;;;;7.50;1.48;;;25.00;52.70;;;;;;4973769;28;20038;-88
2022/05/15 11:40:32;;;;;;;9.30;0.98;;;25.10;52.10;;;;;;4972270;28;20029;-88
2022/05/15 11:42:58;;;;;;;6.40;1.00;;;25.10;52.40;;;;;;4975423;28;20038;-89
2022/05/15 11:45:34;;;;;;;6.93;1.30;;;25.00;52.60;;;;;;4967088;28;20019;-87
2022/05/15 11:48:17;;;;;;;6.78;0.88;;;25.00;51.90;;;;;;4966807;28;20065;-85
2022/05/15 11:51:04;;;;;;;12.05;1.83;;;25.00;52.40;;;;;;4961654;28;20034;-88
2022/05/15 11:53:48;;;;;;;5.38;0.75;;;25.10;52.10;;;;;;4976196;28;20034;-88
2022/05/15 11:56:26;;;;;;;8.43;1.05;;;25.20;52.30;;;;;;4972230;28;20384;-87
2022/05/15 11:58:55;;;;;;;8.48;0.98;;;25.20;51.50;;;;;;4967540;28;20026;-87
2022/05/15 12:01:42;;;;;;;5.72;1.05;;;25.30;51.20;;;;;;4971127;28;20038;-84
2022/05/15 12:04:18;;;;;;;6.47;0.85;;;25.20;50.90;;;;;;4990223;28;20038;-84
2022/05/15 12:07:04;;;;;;;4.88;0.90;;;25.20;51.60;;;;;;4974078;28;20089;-84
2022/05/15 12:09:33;;;;;;;5.00;0.75;;;25.40;51.20;;;;;;4961578;28;20030;-84
2022/05/15 12:12:27;;;;;;;4.72;0.73;;;25.40;49.60;;;;;;4992454;28;20536;-83
2022/05/15 12:15:19;;;;;;;5.15;0.70;;;25.40;49.20;;;;;;4955623;28;20023;-84
2022/05/15 12:17:55;;;;;;;6.63;0.85;;;25.40;49.40;;;;;;4971732;28;20037;-83
2022/05/15 12:20:29;;;;;;;3.95;0.77;;;25.40;49.10;;;;;;4979327;28;20026;-83
2022/05/15 12:23:02;;;;;;;11.20;0.88;;;25.40;49.50;;;;;;4973979;28;20051;-83
2022/05/15 12:25:35;;;;;;;5.97;0.70;;;25.40;49.40;;;;;;4996057;28;20114;-84
2022/05/15 12:30:53;;;;;;;10.55;1.15;;;25.60;49.20;;;;;;4981387;28;20085;-83
2022/05/15 12:33:27;;;;;;;5.35;0.93;;;25.60;48.40;;;;;;4974044;28;20125;-83
2022/05/15 12:35:53;;;;;;;5.13;0.60;;;25.80;48.20;;;;;;4975651;28;20033;-83
2022/05/15 12:38:22;;;;;;;4.80;0.73;;;25.80;47.30;;;;;;4970812;28;20061;-84
2022/05/15 12:41:02;;;;;;;4.10;0.50;;;25.90;47.30;;;;;;4979021;28;20065;-84
2022/05/15 12:43:30;;;;;;;6.05;0.68;;;25.90;47.40;;;;;;4977911;28;20085;-84
2022/05/15 12:45:57;;;;;;;6.57;0.60;;;26.10;47.10;;;;;;4965861;28;20022;-83
2022/05/15 12:48:24;;;;;;;6.35;0.52;;;26.30;46.10;;;;;;4979224;28;20433;-84
2022/05/15 12:51:06;;;;;;;7.93;0.85;;;26.50;47.10;;;;;;4977785;28;20035;-84
2022/05/15 12:53:40;;;;;;;6.15;0.68;;;26.70;47.60;;;;;;4979108;28;20026;-84
2022/05/15 12:56:17;;;;;;;4.57;0.70;;;26.70;46.40;;;;;;4978605;28;20483;-84
2022/05/15 12:58:48;;;;;;;5.45;0.55;;;26.70;46.50;;;;;;4977585;28;20030;-88
2022/05/15 13:01:15;;;;;;;3.35;0.85;;;26.80;45.80;;;;;;4974054;28;20045;-84
2022/05/15 13:03:47;;;;;;;8.25;0.98;;;26.90;45.80;;;;;;4972067;28;20035;-85
2022/05/15 13:06:18;;;;;;;1.77;0.47;;;27.10;46.50;;;;;;4967804;28;20069;-84
2022/05/15 13:08:49;;;;;;;2.22;0.50;;;27.20;45.50;;;;;;4978101;28;20399;-84
2022/05/15 13:11:39;;;;;;;4.78;0.50;;;27.20;43.40;;;;;;4974164;28;20034;-84
2022/05/15 13:14:09;;;;;;;4.53;0.43;;;27.00;43.00;;;;;;4967386;28;20430;-85
2022/05/15 13:16:41;;;;;;;3.85;0.50;;;27.00;43.70;;;;;;4996037;28;20031;-84
2022/05/15 13:19:11;;;;;;;4.53;0.70;;;27.10;43.30;;;;;;4978060;28;20049;-84